createdAt,value
2022-10-26T00:00:17.253Z,13.75
2022-10-26T00:03:19.772Z,20.17
2022-10-26T00:06:25.027Z,17.10
2022-10-26T00:09:27.598Z,22.17
2022-10-26T00:12:33.675Z,16.42
2022-10-26T00:15:42.074Z,19.48
2022-10-26T00:18:44.568Z,19.52
2022-10-26T00:21:54.190Z,15.45
2022-10-26T00:24:56.565Z,18.58
2022-10-26T00:28:00.241Z,22.05
2022-10-26T00:31:04.087Z,11.45
2022-10-26T00:34:06.491Z,15.85
2022-10-26T00:37:09.739Z,22.63
2022-10-26T00:40:12.068Z,26.75
2022-10-26T00:43:23.103Z,15.88
2022-10-26T00:46:35.506Z,22.90
2022-10-26T00:49:38.609Z,14.93
2022-10-26T00:52:41.396Z,22.70
2022-10-26T00:55:47.945Z,17.88
2022-10-26T00:58:50.198Z,19.27
2022-10-26T01:01:53.658Z,22.85
2022-10-26T01:04:57.525Z,10.52
2022-10-26T01:07:59.705Z,12.63
2022-10-26T01:11:04.663Z,24.27
2022-10-26T01:14:13.619Z,20.10
2022-10-26T01:17:45.933Z,16.63
2022-10-26T01:21:00.997Z,18.63
2022-10-26T01:24:10.057Z,16.67
2022-10-26T01:27:38.884Z,15.35
2022-10-26T01:30:45.871Z,19.70
2022-10-26T01:34:02.478Z,12.15
2022-10-26T01:37:11.005Z,16.27
2022-10-26T01:40:23.516Z,19.75
2022-10-26T01:43:28.357Z,17.00
2022-10-26T01:46:39.524Z,20.45
2022-10-26T01:50:09.119Z,17.80
2022-10-26T01:53:15.183Z,14.25
2022-10-26T02:02:43.584Z,15.25
2022-10-26T02:05:56.940Z,15.50
2022-10-26T02:09:14.399Z,14.32
2022-10-26T02:12:55.250Z,18.98
2022-10-26T02:16:19.973Z,17.73
2022-10-26T02:19:40.866Z,11.38
2022-10-26T02:22:50.527Z,10.88
2022-10-26T02:25:58.521Z,15.93
2022-10-26T02:29:05.233Z,15.10
2022-10-26T02:32:09.558Z,17.40
2022-10-26T02:38:16.906Z,14.15
2022-10-26T02:41:20.316Z,11.00
2022-10-26T02:44:27.277Z,10.23
2022-10-26T02:47:29.983Z,14.30
2022-10-26T02:51:03.925Z,15.02
2022-10-26T02:54:23.954Z,16.17
2022-10-26T02:57:40.935Z,8.55
2022-10-26T03:00:43.565Z,28.98
2022-10-26T03:03:45.724Z,10.98
2022-10-26T03:06:54.385Z,13.63
2022-10-26T03:09:58.239Z,20.42
2022-10-26T03:13:00.231Z,11.90
2022-10-26T03:16:04.229Z,20.77
2022-10-26T03:19:06.285Z,15.80
2022-10-26T03:22:08.356Z,10.15
2022-10-26T03:25:10.544Z,17.85
2022-10-26T03:28:12.807Z,24.08
2022-10-26T03:31:14.978Z,15.32
2022-10-26T03:34:17.048Z,14.85
2022-10-26T03:37:19.267Z,22.77
2022-10-26T03:40:21.311Z,20.60
2022-10-26T03:43:23.332Z,15.75
2022-10-26T03:46:25.364Z,21.58
2022-10-26T03:49:27.373Z,17.13
2022-10-26T03:52:29.428Z,21.65
2022-10-26T03:55:31.689Z,23.50
2022-10-26T03:58:33.741Z,20.42
2022-10-26T04:01:36.214Z,21.10
2022-10-26T04:04:38.383Z,19.83
2022-10-26T04:07:40.463Z,15.20
2022-10-26T04:10:42.466Z,27.67
2022-10-26T04:13:45.399Z,19.95
2022-10-26T04:16:47.749Z,16.42
2022-10-26T04:19:49.773Z,15.40
2022-10-26T04:23:18.885Z,13.43
2022-10-26T04:26:21.792Z,13.73
2022-10-26T04:29:23.831Z,20.13
2022-10-26T04:32:26.028Z,10.00
2022-10-26T04:35:28.484Z,12.65
2022-10-26T04:38:30.492Z,18.25
2022-10-26T04:41:32.506Z,14.13
2022-10-26T04:44:34.547Z,20.25
2022-10-26T04:47:36.824Z,19.20
2022-10-26T04:50:40.203Z,22.52
2022-10-26T04:53:47.040Z,15.57
2022-10-26T04:56:49.056Z,18.63
2022-10-26T04:59:51.064Z,12.48
2022-10-26T05:02:58.799Z,23.48
2022-10-26T05:06:01.863Z,19.77
2022-10-26T05:09:04.078Z,18.02
2022-10-26T05:12:06.922Z,15.07
2022-10-26T05:15:12.234Z,15.82
2022-10-26T05:18:14.325Z,18.65
2022-10-26T05:21:20.223Z,14.32
2022-10-26T05:24:22.299Z,8.68
2022-10-26T05:27:24.360Z,13.15
2022-10-26T05:30:27.776Z,18.58
2022-10-26T05:33:29.899Z,11.52
2022-10-26T05:36:32.286Z,17.42
2022-10-26T05:39:39.694Z,21.63
2022-10-26T05:42:41.740Z,14.38
2022-10-26T05:45:43.907Z,12.40
2022-10-26T05:48:46.180Z,11.63
2022-10-26T05:51:48.220Z,16.77
2022-10-26T05:54:50.304Z,17.83
2022-10-26T05:57:52.977Z,13.05
2022-10-26T06:01:07.785Z,15.52
2022-10-26T06:04:31.369Z,19.80
2022-10-26T06:07:33.669Z,21.58
2022-10-26T06:10:36.029Z,16.33
2022-10-26T06:13:38.303Z,27.63
2022-10-26T06:17:13.495Z,15.73
2022-10-26T06:23:55.712Z,13.63
2022-10-26T06:27:36.727Z,19.10
2022-10-26T06:30:40.881Z,27.00
2022-10-26T06:36:48.172Z,11.35
2022-10-26T06:39:54.040Z,19.25
2022-10-26T06:42:57.124Z,16.52
2022-10-26T06:46:16.253Z,14.13
2022-10-26T06:49:29.726Z,16.70
2022-10-26T06:52:48.803Z,24.60
2022-10-26T06:55:51.414Z,21.00
2022-10-26T06:58:55.787Z,29.75
2022-10-26T07:02:02.856Z,18.98
2022-10-26T07:05:13.050Z,15.20
2022-10-26T07:08:15.122Z,16.30
2022-10-26T07:11:17.534Z,16.83
2022-10-26T07:14:19.581Z,17.17
2022-10-26T07:17:21.725Z,23.15
2022-10-26T07:20:24.274Z,14.70
2022-10-26T07:26:37.132Z,15.35
2022-10-26T07:29:40.191Z,18.05
2022-10-26T07:32:44.050Z,11.40
2022-10-26T07:35:46.247Z,17.50
2022-10-26T07:38:51.093Z,12.65
2022-10-26T07:41:56.118Z,16.23
2022-10-26T07:44:58.560Z,18.02
2022-10-26T07:48:00.634Z,14.88
2022-10-26T07:51:03.573Z,20.98
2022-10-26T07:54:05.718Z,12.15
2022-10-26T07:57:16.436Z,13.55
2022-10-26T08:00:18.743Z,20.17
2022-10-26T08:03:21.470Z,20.00
2022-10-26T08:06:24.511Z,19.40
2022-10-26T08:09:26.606Z,15.93
2022-10-26T08:12:28.843Z,13.02
2022-10-26T08:15:30.888Z,14.85
2022-10-26T08:18:33.776Z,16.83
2022-10-26T08:21:39.917Z,10.55
2022-10-26T08:24:44.307Z,11.75
2022-10-26T08:27:46.460Z,11.52
2022-10-26T08:30:48.635Z,14.23
2022-10-26T08:33:51.247Z,12.93
2022-10-26T08:36:53.272Z,13.68
2022-10-26T08:39:56.645Z,13.15
2022-10-26T08:43:27.072Z,16.52
2022-10-26T08:46:36.400Z,12.23
2022-10-26T08:50:22.820Z,25.73
2022-10-26T08:53:34.203Z,12.70
2022-10-26T08:56:44.909Z,6.53
2022-10-26T08:59:59.377Z,12.98
2022-10-26T09:03:01.504Z,14.35
2022-10-26T09:06:26.181Z,17.33
2022-10-26T09:09:37.072Z,12.75
2022-10-26T09:12:49.002Z,4.63
2022-10-26T09:16:17.425Z,9.13
2022-10-26T09:19:27.268Z,7.78
2022-10-26T09:22:50.320Z,14.23
2022-10-26T09:26:02.440Z,18.02
2022-10-26T09:29:07.472Z,13.00
2022-10-26T09:32:22.283Z,9.80
2022-10-26T09:38:43.674Z,10.15
2022-10-26T09:41:57.718Z,12.88
2022-10-26T09:45:25.523Z,16.10
2022-10-26T09:48:46.234Z,8.88
2022-10-26T09:51:48.954Z,20.70
2022-10-26T09:54:50.986Z,14.02
2022-10-26T09:57:57.245Z,19.88
2022-10-26T10:01:00.553Z,18.10
2022-10-26T10:04:17.553Z,16.98
2022-10-26T10:07:19.611Z,14.35
2022-10-26T10:10:23.542Z,17.25
2022-10-26T10:13:29.085Z,7.30
2022-10-26T10:16:31.337Z,10.65
2022-10-26T10:19:35.724Z,37.35
2022-10-26T10:22:54.376Z,14.43
2022-10-26T10:26:10.210Z,24.50
2022-10-26T10:29:16.956Z,20.10
2022-10-26T10:32:21.976Z,17.60
2022-10-26T10:35:29.783Z,16.42
2022-10-26T10:38:38.213Z,12.65
2022-10-26T10:41:44.628Z,19.17
2022-10-26T10:44:52.118Z,16.83
2022-10-26T10:48:02.411Z,19.25
2022-10-26T10:51:12.753Z,14.10
2022-10-26T10:54:36.025Z,14.50
2022-10-26T10:57:56.195Z,14.38
2022-10-26T11:00:59.396Z,11.15
2022-10-26T11:04:16.179Z,23.42
2022-10-26T11:07:21.048Z,16.33
2022-10-26T11:10:27.878Z,15.02
2022-10-26T11:13:32.254Z,12.70
2022-10-26T11:16:47.274Z,11.05
2022-10-26T11:19:53.593Z,12.65
2022-10-26T11:23:21.097Z,9.88
2022-10-26T11:26:42.340Z,9.90
2022-10-26T11:30:18.503Z,15.95
2022-10-26T11:33:28.934Z,10.82
2022-10-26T11:36:33.845Z,20.17
2022-10-26T11:40:14.844Z,11.02
2022-10-26T11:43:33.681Z,13.57
2022-10-26T11:46:53.057Z,9.57
2022-10-26T11:50:17.359Z,12.05
2022-10-26T11:53:24.528Z,14.50
2022-10-26T11:56:34.243Z,22.50
2022-10-26T11:59:42.828Z,12.73
2022-10-26T12:02:58.195Z,11.82
2022-10-26T12:06:02.888Z,8.70
2022-10-26T12:09:35.799Z,10.68
2022-10-26T12:13:21.444Z,5.38
2022-10-26T12:16:52.275Z,20.50
2022-10-26T12:20:21.569Z,13.80
2022-10-26T12:23:40.377Z,15.38
2022-10-26T12:26:52.314Z,7.75
2022-10-26T12:30:23.043Z,9.38
2022-10-26T12:33:30.161Z,9.75
2022-10-26T12:36:57.429Z,13.38
2022-10-26T12:40:33.552Z,9.90
2022-10-26T12:43:38.076Z,13.15
2022-10-26T12:46:41.638Z,5.85
2022-10-26T12:50:22.093Z,10.45
2022-10-26T12:53:26.234Z,12.40
2022-10-26T12:59:50.604Z,6.55
2022-10-26T13:03:11.456Z,8.57
2022-10-26T13:06:44.507Z,17.83
2022-10-26T13:09:59.859Z,6.13
2022-10-26T13:13:05.547Z,10.65
2022-10-26T13:16:12.224Z,8.57
2022-10-26T13:19:36.995Z,9.25
2022-10-26T13:22:47.225Z,10.95
2022-10-26T13:26:12.961Z,9.43
2022-10-26T13:29:16.535Z,6.20
2022-10-26T13:32:19.131Z,7.65
2022-10-26T13:35:24.042Z,6.82
2022-10-26T13:38:31.704Z,11.38
2022-10-26T13:41:38.263Z,8.50
2022-10-26T13:44:59.255Z,11.75
2022-10-26T13:48:12.339Z,9.85
2022-10-26T13:51:22.286Z,8.47
2022-10-26T13:54:44.944Z,8.40
2022-10-26T13:58:16.907Z,9.77
2022-10-26T14:01:21.779Z,6.80
2022-10-26T14:04:28.202Z,12.90
2022-10-26T14:07:37.121Z,11.70
2022-10-26T14:10:42.421Z,15.60
2022-10-26T14:13:45.870Z,7.85
2022-10-26T14:16:50.398Z,9.60
2022-10-26T14:19:53.279Z,6.95
2022-10-26T14:22:55.756Z,6.38
2022-10-26T14:25:59.452Z,20.92
2022-10-26T14:29:02.348Z,3.63
2022-10-26T14:32:21.693Z,12.90
2022-10-26T14:35:28.785Z,6.18
2022-10-26T14:38:45.209Z,7.43
2022-10-26T14:41:48.866Z,13.30
2022-10-26T14:44:51.084Z,14.50
2022-10-26T14:47:53.411Z,11.32
2022-10-26T14:50:59.819Z,10.90
2022-10-26T14:54:04.408Z,6.43
2022-10-26T14:57:26.477Z,11.18
2022-10-26T15:00:28.820Z,7.80
2022-10-26T15:03:30.955Z,7.82
2022-10-26T15:06:42.046Z,10.50
2022-10-26T15:09:46.058Z,6.90
2022-10-26T15:12:48.215Z,6.53
2022-10-26T15:15:53.605Z,9.48
2022-10-26T15:19:09.871Z,13.63
2022-10-26T15:22:31.735Z,15.90
2022-10-26T15:25:34.937Z,11.18
2022-10-26T15:28:37.055Z,12.75
2022-10-26T15:31:39.412Z,11.02
2022-10-26T15:34:42.713Z,9.52
2022-10-26T15:37:48.866Z,14.70
2022-10-26T15:40:53.849Z,10.98
2022-10-26T15:44:01.599Z,13.40
2022-10-26T15:47:08.496Z,11.52
2022-10-26T15:50:16.216Z,8.88
2022-10-26T15:53:24.330Z,16.92
2022-10-26T15:56:26.973Z,12.00
2022-10-26T15:59:29.222Z,15.00
2022-10-26T16:02:31.347Z,13.20
2022-10-26T16:05:33.432Z,23.45
2022-10-26T16:08:35.753Z,18.67
2022-10-26T16:11:37.853Z,9.95
2022-10-26T16:15:05.239Z,20.35
2022-10-26T16:18:02.558Z,14.57
2022-10-26T16:21:04.868Z,16.13
2022-10-26T16:24:07.240Z,18.70
2022-10-26T16:27:09.299Z,28.38
2022-10-26T16:30:13.126Z,16.90
2022-10-26T16:33:15.390Z,16.63
2022-10-26T16:36:17.534Z,13.73
2022-10-26T16:39:19.622Z,16.40
2022-10-26T16:42:21.732Z,16.33
2022-10-26T16:45:23.844Z,16.85
2022-10-26T16:48:26.317Z,13.00
2022-10-26T16:51:29.383Z,19.73
2022-10-26T16:54:31.421Z,23.08
2022-10-26T16:57:33.830Z,21.33
2022-10-26T17:00:37.880Z,13.75
2022-10-26T17:03:40.533Z,19.83
2022-10-26T17:06:42.827Z,15.82
2022-10-26T17:09:44.963Z,18.42
2022-10-26T17:12:47.476Z,25.40
2022-10-26T17:15:50.629Z,24.27
2022-10-26T17:18:53.812Z,30.02
2022-10-26T17:21:55.981Z,19.80
2022-10-26T17:24:58.056Z,19.60
2022-10-26T17:28:00.214Z,15.88
2022-10-26T17:31:13.956Z,17.70
2022-10-26T17:34:16.285Z,29.20
2022-10-26T17:37:19.715Z,26.77
2022-10-26T17:40:22.149Z,33.42
2022-10-26T17:43:24.660Z,19.75
2022-10-26T17:46:27.271Z,25.08
2022-10-26T17:49:33.645Z,24.52
2022-10-26T17:52:38.143Z,21.80
2022-10-26T17:55:40.202Z,35.00
2022-10-26T17:58:42.532Z,20.65
2022-10-26T18:01:44.863Z,16.80
2022-10-26T18:04:46.993Z,23.58
2022-10-26T18:07:49.388Z,32.90
2022-10-26T18:10:54.161Z,32.78
2022-10-26T18:13:58.136Z,31.95
2022-10-26T18:17:00.334Z,33.83
2022-10-26T18:20:02.673Z,26.38
2022-10-26T18:23:05.814Z,28.33
2022-10-26T18:26:18.517Z,27.67
2022-10-26T18:29:20.617Z,27.00
2022-10-26T18:32:22.709Z,31.38
2022-10-26T18:35:24.818Z,32.80
2022-10-26T18:38:26.923Z,23.23
2022-10-26T18:41:29.103Z,35.35
2022-10-26T18:44:31.628Z,33.75
2022-10-26T18:47:34.028Z,38.38
2022-10-26T18:50:36.519Z,27.08
2022-10-26T18:53:40.345Z,25.67
2022-10-26T18:56:42.738Z,33.15
2022-10-26T18:59:44.934Z,29.45
2022-10-26T19:02:51.533Z,32.42
2022-10-26T19:05:55.546Z,45.03
2022-10-26T19:08:58.358Z,37.08
2022-10-26T19:12:03.707Z,41.13
2022-10-26T19:15:06.634Z,38.10
2022-10-26T19:18:09.614Z,29.00
2022-10-26T19:21:17.828Z,42.40
2022-10-26T19:24:22.399Z,46.92
2022-10-26T19:27:24.512Z,34.97
2022-10-26T19:30:26.636Z,33.20
2022-10-26T19:33:28.817Z,41.10
2022-10-26T19:36:31.070Z,34.25
2022-10-26T19:39:33.335Z,39.55
2022-10-26T19:42:35.713Z,36.20
2022-10-26T19:45:38.022Z,42.35
2022-10-26T19:48:40.732Z,29.63
2022-10-26T19:51:44.127Z,32.25
2022-10-26T19:54:46.159Z,27.70
2022-10-26T19:57:48.549Z,39.58
2022-10-26T20:00:51.618Z,33.55
2022-10-26T20:03:53.788Z,38.30
2022-10-26T20:06:55.834Z,44.28
2022-10-26T20:09:57.921Z,35.38
2022-10-26T20:12:59.995Z,39.67
2022-10-26T20:16:02.158Z,38.38
2022-10-26T20:19:04.518Z,26.98
2022-10-26T20:22:07.586Z,46.80
2022-10-26T20:25:09.683Z,37.90
2022-10-26T20:28:11.923Z,40.53
2022-10-26T20:31:14.155Z,34.08
2022-10-26T20:34:16.694Z,44.28
2022-10-26T20:37:19.006Z,27.13
2022-10-26T20:40:21.810Z,31.02
2022-10-26T20:43:24.875Z,30.90
2022-10-26T20:46:28.279Z,32.77
2022-10-26T20:49:30.648Z,36.60
2022-10-26T20:52:55.323Z,50.28
2022-10-26T20:56:03.631Z,21.55
2022-10-26T20:59:12.712Z,36.38
2022-10-26T21:02:15.944Z,35.38
2022-10-26T21:05:19.994Z,34.95
2022-10-26T21:08:22.478Z,36.45
2022-10-26T21:11:25.967Z,31.52
2022-10-26T21:14:28.870Z,34.05
2022-10-26T21:17:34.576Z,25.88
2022-10-26T21:20:36.882Z,23.80
2022-10-26T21:23:40.688Z,30.15
2022-10-26T21:26:42.728Z,28.08
2022-10-26T21:29:44.875Z,23.67
2022-10-26T21:32:47.004Z,30.80
2022-10-26T21:35:54.482Z,38.03
2022-10-26T21:38:56.593Z,28.50
2022-10-26T21:41:58.829Z,26.50
2022-10-26T21:45:01.187Z,30.42
2022-10-26T21:48:03.301Z,22.88
2022-10-26T21:51:07.206Z,27.10
2022-10-26T21:54:09.432Z,23.67
2022-10-26T21:57:11.707Z,22.50
2022-10-26T22:00:14.691Z,17.98
2022-10-26T22:03:16.836Z,17.50
2022-10-26T22:06:21.035Z,23.92
2022-10-26T22:09:23.047Z,17.63
2022-10-26T22:12:25.044Z,22.02
2022-10-26T22:15:27.064Z,23.08
2022-10-26T22:18:29.142Z,16.75
2022-10-26T22:21:35.264Z,22.98
2022-10-26T22:24:37.353Z,20.92
2022-10-26T22:27:40.326Z,18.02
2022-10-26T22:30:44.322Z,19.02
2022-10-26T22:33:51.270Z,21.67
2022-10-26T22:36:53.473Z,25.90
2022-10-26T22:39:55.468Z,15.75
2022-10-26T22:42:57.649Z,21.15
2022-10-26T22:46:05.404Z,20.35
2022-10-26T22:49:11.516Z,18.92
2022-10-26T22:52:14.475Z,13.63
2022-10-26T22:55:17.399Z,19.02
2022-10-26T22:58:20.337Z,19.10
2022-10-26T23:01:28.441Z,23.77
2022-10-26T23:04:30.606Z,16.60
2022-10-26T23:07:33.080Z,13.70
2022-10-26T23:10:35.404Z,15.15
2022-10-26T23:13:37.486Z,22.10
2022-10-26T23:16:39.530Z,21.70
2022-10-26T23:19:42.538Z,20.27
2022-10-26T23:22:44.532Z,24.13
2022-10-26T23:25:46.528Z,24.70
2022-10-26T23:28:49.151Z,14.70
2022-10-26T23:31:51.215Z,20.65
2022-10-26T23:34:53.263Z,16.67
2022-10-26T23:37:58.976Z,16.90
2022-10-26T23:41:01.056Z,15.38
2022-10-26T23:44:03.111Z,18.05
2022-10-26T23:47:05.152Z,16.15
2022-10-26T23:50:07.727Z,7.65
2022-10-26T23:53:10.930Z,13.93
2022-10-26T23:56:13.084Z,12.15
2022-10-26T23:59:15.781Z,11.55
